ADDS TAF Data INFO
IDs: Format: Raw Decoded Include METARs

Data at: 1027 UTC 16 Aug 2018

KLUF 160958Z 23009KT 10SM CLR 31/20 A2990 RMK AO2A SLP110 T03110200 $

TAF KLUF 1604/1710 26009KT 9999 BKN100 QNH2978INS
  BECMG 1609/1610 VRB06KT 9999 SCT100 QNH2995INS
  BECMG 1619/1620 24009KT 9999 BKN150 QNH3000INS
  TEMPO 1621/1702 24012G18KT
  BECMG 1702/1703 25009KT 9999 SCT150 QNH3000INS TX37/1623Z TN26/1613Z